Pompano Beach, FL

7:10 AM EDT on March 29, 2015 (GMT -0400)
Galloways Farm in Country Acres | | Change Station
CLOSE
Current Station
Personal Weather Station
Location: Parkland, FL
Elevation: 12 ft
Nearby Weather Stations

Elev 12 ft 26.30 °N, 80.22 °W | Updated 3 seconds ago

Partly Cloudy
Partly Cloudy
55.1 °F
Feels Like 55.1 °F
N
11.5
Wind Variable Wind from WNW
Gusts 11.5 mph

Today
High -- | Low -- °F
--% Chance of Precip.
Yesterday
High -- | Low -- °F
Precip. -- in
7:15 AM 7:36 PM
Waxing Gibbous, 70% visible
Pressure 30.25 in
Visibility 10.0 miles
Clouds Clear
Dew Point 45 °F
Humidity 68%
Rainfall 0.00 in
Snow Depth Not available.
UV 0 out of 12
Pollen 9.40 out of 12
Air Quality Not available.
Flu Activity Not available.
METAR KFXE 291053Z 33005KT 10SM CLR 14/06 A3024 RMK AO2 SLP242 T01390061

More Conditions Fewer Conditions

Pressure 30.25 in
Visibility 10.0 miles
Clouds Clear
Dew Point 45 °F
Humidity 68%
Rainfall 0.00 in
Snow Depth Not available.
UV 0 out of 12
Pollen 9.40 out of 12
Air Quality Not available.
Flu Activity Not available.
METAR KFXE 291053Z 33005KT 10SM CLR 14/06 A3024 RMK AO2 SLP242 T01390061

More Conditions Fewer Conditions

10-Day Weather Forecast

Almanac

Astronomy

Mar. 29, 2015 Rise Set
Actual Time
Civil Twilight
Nautical Twilight
Astronomical Twilight
Moon
Length of Visible Light
Length of Day
Tomorrow will be .
, % of the Moon is Illuminated

Today's Extremes

State Highs State Lows

Community

WunderPhotos

Upload Photos

1,809,214 photos uploaded!

WunderBlogs® & News

Nearby

Air Quality

  Air Quality AQ Index Pollutant
Not available.

Snow Depth

Station Depth Elevation

Earthquake Activity

City Distance Mag. Time & Date
Minimum magnitude displayed is 2.5.

Coastal Water Temperatures

Place Temperature

Stations

Nearby Weather Stations

Station Location Temp. Windchill Dew Point Humidity Wind Precip. Elev Updated Type